KTOR/TOR METAR and TAF weather

Enter ICAO airport designator
Station Type Date Time Source
KTOR METAR 2022/08/16 18:53 UTC NOAA

KTOR 161853Z AUTO 10005KT 10SM FEW055 28/13 A3017 RMK AO2 SLP171 T02830128


Station Type Date Time Source
KTOR Decoded METAR 2022/08/16 18:53 UTC NOAA

TORRINGTON MUNICIPAL AIRPORT, WY, United States (KTOR) 42-03N 104-09W 1277M
Aug 16, 2022 - 02:53 PM EDT / 2022.08.16 1853 UTC
Wind: from the E (100 degrees) at 6 MPH (5 KT):0
Visibility: 10 mile(s):0
Sky conditions: mostly clear
Temperature: 82.9 F (28.3 C)
Dew Point: 55.0 F (12.8 C)
Relative Humidity: 38%
Pressure (altimeter): 30.17 in. Hg (1021 hPa)
ob: KTOR 161853Z AUTO 10005KT 10SM FEW055 28/13 A3017 RMK AO2 SLP171 T02830128
cycle: 19

Station Type Date Time Source
KTOR TAF UTC NOAA

Error!

Example: see airport list